createdAt,value
2017-03-07T04:01:22.693Z,1010.28
2017-03-07T04:01:48.250Z,1010.29
2017-03-07T04:02:13.810Z,1010.3
2017-03-07T04:02:39.436Z,1010.32
2017-03-07T04:03:05.004Z,1010.35
2017-03-07T04:03:31.431Z,1010.35
2017-03-07T04:03:56.997Z,1010.32
2017-03-07T04:04:22.591Z,1010.35
2017-03-07T04:04:48.159Z,1010.33
2017-03-07T04:05:13.789Z,1010.37
2017-03-07T04:05:39.364Z,1010.39
2017-03-07T04:06:04.935Z,1010.43
2017-03-07T04:06:30.495Z,1010.41
2017-03-07T04:06:56.184Z,1010.45
2017-03-07T04:07:21.747Z,1010.43
2017-03-07T04:07:47.329Z,1010.44
2017-03-07T04:08:12.888Z,1010.49
2017-03-07T04:08:38.482Z,1010.48
2017-03-07T04:09:04.057Z,1010.47
2017-03-07T04:09:29.636Z,1010.49
2017-03-07T04:09:55.185Z,1010.49
2017-03-07T04:10:20.769Z,1010.51
2017-03-07T04:10:46.354Z,1010.48
2017-03-07T04:11:11.916Z,1010.5
2017-03-07T04:11:37.488Z,1010.46
2017-03-07T04:12:03.057Z,1010.52
2017-03-07T04:12:28.612Z,1010.51
2017-03-07T04:12:54.187Z,1010.49
2017-03-07T04:13:20.470Z,1010.56
2017-03-07T04:13:46.234Z,1010.5
2017-03-07T04:14:11.841Z,1010.55
2017-03-07T04:14:37.418Z,1010.52
2017-03-07T04:15:02.991Z,1010.58
2017-03-07T04:15:29.489Z,1010.56
2017-03-07T04:15:54.159Z,1010.59
2017-03-07T04:16:19.734Z,1010.56
2017-03-07T04:16:45.302Z,1010.59
2017-03-07T04:17:10.873Z,1010.57
2017-03-07T04:17:36.434Z,1010.62
2017-03-07T04:18:01.971Z,1010.61
2017-03-07T04:18:27.559Z,1010.59
2017-03-07T04:18:53.148Z,1010.61
2017-03-07T04:19:18.715Z,1010.63
2017-03-07T04:19:44.276Z,1010.6
2017-03-07T04:20:09.829Z,1010.64
2017-03-07T04:20:35.393Z,1010.67
2017-03-07T04:21:01.061Z,1010.63
2017-03-07T04:21:26.690Z,1010.67
2017-03-07T04:21:52.269Z,1010.68
2017-03-07T04:22:17.836Z,1010.61
2017-03-07T04:22:43.556Z,1010.65
2017-03-07T04:23:10.019Z,1010.64
2017-03-07T04:23:35.598Z,1010.7
2017-03-07T04:24:01.781Z,1010.69
2017-03-07T04:24:28.167Z,1010.67
2017-03-07T04:24:53.751Z,1010.71
2017-03-07T04:25:19.331Z,1010.71
2017-03-07T04:25:44.890Z,1010.67
2017-03-07T04:26:10.493Z,1010.72
2017-03-07T04:27:29.380Z,1010.7
2017-03-07T04:27:54.942Z,1010.71
2017-03-07T04:28:20.502Z,1010.72
2017-03-07T04:29:28.772Z,1010.75
2017-03-07T04:29:54.345Z,1010.77
2017-03-07T04:30:19.921Z,1010.74
2017-03-07T04:30:45.502Z,1010.76
2017-03-07T04:31:11.090Z,1010.79
2017-03-07T04:31:36.633Z,1010.76
2017-03-07T04:32:02.198Z,1010.77
2017-03-07T04:32:27.757Z,1010.77
2017-03-07T04:32:53.473Z,1010.77
2017-03-07T04:33:19.036Z,1010.81
2017-03-07T04:33:44.637Z,1010.76
2017-03-07T04:34:10.238Z,1010.78
2017-03-07T04:34:35.806Z,1010.81
2017-03-07T04:35:01.378Z,1010.79
2017-03-07T04:35:26.955Z,1010.85
2017-03-07T04:35:52.531Z,1010.81
2017-03-07T04:36:18.073Z,1010.84
2017-03-07T04:36:43.636Z,1010.84
2017-03-07T04:37:09.207Z,1010.81
2017-03-07T04:37:34.889Z,1010.84
2017-03-07T04:38:00.453Z,1010.86
2017-03-07T04:38:26.031Z,1010.81
2017-03-07T04:38:52.335Z,1010.87
2017-03-07T04:39:17.895Z,1010.84
2017-03-07T04:39:43.411Z,1010.85
2017-03-07T04:40:08.984Z,1010.82
2017-03-07T04:41:07.381Z,1010.89
2017-03-07T04:41:32.947Z,1010.9
2017-03-07T04:41:58.499Z,1010.87
2017-03-07T04:42:24.066Z,1010.88
2017-03-07T04:42:49.624Z,1010.86
2017-03-07T04:43:15.244Z,1010.9
2017-03-07T04:43:40.865Z,1010.91
2017-03-07T04:44:06.417Z,1010.9
2017-03-07T04:44:31.975Z,1010.92
2017-03-07T04:44:57.612Z,1010.88
2017-03-07T04:45:23.170Z,1010.9
2017-03-07T04:45:48.729Z,1010.9
2017-03-07T04:46:14.412Z,1010.92
2017-03-07T04:46:39.972Z,1010.89
2017-03-07T04:47:05.537Z,1010.89
2017-03-07T04:47:31.209Z,1010.9
2017-03-07T04:47:56.751Z,1010.9
2017-03-07T04:48:22.311Z,1010.91
2017-03-07T04:48:48.710Z,1010.91
2017-03-07T04:49:14.436Z,1010.97
2017-03-07T04:49:40.050Z,1010.9
2017-03-07T04:50:05.651Z,1010.92
2017-03-07T04:50:31.202Z,1010.96
2017-03-07T04:50:56.748Z,1010.93
2017-03-07T04:51:22.311Z,1010.96
2017-03-07T04:51:47.882Z,1010.92
2017-03-07T04:52:13.443Z,1010.93
2017-03-07T04:52:39.001Z,1010.91
2017-03-07T04:53:04.561Z,1010.94
2017-03-07T04:53:30.111Z,1010.94
2017-03-07T04:53:55.678Z,1010.94
2017-03-07T04:54:21.252Z,1010.93
2017-03-07T04:54:47.569Z,1010.92
2017-03-07T04:55:13.137Z,1010.93
2017-03-07T04:55:38.685Z,1010.96
2017-03-07T04:56:04.259Z,1010.94
2017-03-07T04:56:29.828Z,1010.98
2017-03-07T04:56:55.524Z,1010.95
2017-03-07T04:57:21.084Z,1010.95
2017-03-07T04:57:46.652Z,1010.98
2017-03-07T04:58:12.231Z,1010.96
2017-03-07T04:58:37.832Z,1010.98
2017-03-07T04:59:03.394Z,1011.05
2017-03-07T04:59:28.965Z,1011.03
2017-03-07T04:59:54.523Z,1011
2017-03-07T05:00:20.091Z,1011.01
2017-03-07T05:00:45.645Z,1011.06
2017-03-07T05:01:11.217Z,1011.05
2017-03-07T05:01:36.780Z,1011.06
2017-03-07T05:02:02.336Z,1011
2017-03-07T05:02:27.903Z,1011.02
2017-03-07T05:02:53.462Z,1011.04
2017-03-07T05:03:19.031Z,1011.03
2017-03-07T05:03:44.575Z,1011.06
2017-03-07T05:04:10.203Z,1011.06
2017-03-07T05:04:35.751Z,1011.05
2017-03-07T05:05:01.311Z,1011.04
2017-03-07T05:05:26.950Z,1011.06
2017-03-07T05:05:52.500Z,1011.04
2017-03-07T05:06:18.080Z,1011.02
2017-03-07T05:06:43.672Z,1011.04
2017-03-07T05:07:09.231Z,1011.01
2017-03-07T05:07:34.811Z,1011.04
2017-03-07T05:08:00.382Z,1011.02
2017-03-07T05:08:25.935Z,1011.04
2017-03-07T05:08:51.513Z,1011.04
2017-03-07T05:09:17.147Z,1011.06
2017-03-07T05:09:42.718Z,1011.05
2017-03-07T05:10:08.280Z,1011.05
2017-03-07T05:10:33.846Z,1011.03
2017-03-07T05:10:59.398Z,1011.05
2017-03-07T05:11:24.953Z,1011.07
2017-03-07T05:11:50.548Z,1011.06
2017-03-07T05:12:16.162Z,1011.05
2017-03-07T05:13:19.662Z,1011.07
2017-03-07T05:13:45.245Z,1011.07
2017-03-07T05:15:52.449Z,1011.05
2017-03-07T05:16:18.027Z,1011.07
2017-03-07T05:16:43.628Z,1011.1
2017-03-07T05:17:09.245Z,1011.06
2017-03-07T05:17:34.830Z,1011.07
2017-03-07T05:18:00.400Z,1011.08
2017-03-07T05:18:25.957Z,1011.09
2017-03-07T05:18:51.715Z,1011.06
2017-03-07T05:19:17.309Z,1011.08
2017-03-07T05:19:42.884Z,1011.11
2017-03-07T05:21:34.342Z,1011.08
2017-03-07T05:21:59.904Z,1011.04
2017-03-07T05:22:25.463Z,1011.06
2017-03-07T05:22:51.091Z,1011.05
2017-03-07T05:23:16.722Z,1011.08
2017-03-07T05:23:42.294Z,1011.09
2017-03-07T05:24:07.912Z,1011.09
2017-03-07T05:24:33.524Z,1011.1
2017-03-07T05:24:59.082Z,1011.12
2017-03-07T05:25:24.635Z,1011.11
2017-03-07T05:25:50.177Z,1011.07
2017-03-07T05:26:15.823Z,1011.1
2017-03-07T05:26:41.390Z,1011.14
2017-03-07T05:27:06.975Z,1011.12
2017-03-07T05:27:32.542Z,1011.1
2017-03-07T05:27:58.111Z,1011.12
2017-03-07T05:28:24.191Z,1011.12
2017-03-07T05:28:49.750Z,1011.12
2017-03-07T05:29:15.359Z,1011.12
2017-03-07T05:29:40.921Z,1011.18
2017-03-07T05:30:06.479Z,1011.14
2017-03-07T05:30:32.139Z,1011.17
2017-03-07T05:30:57.691Z,1011.16
2017-03-07T05:31:23.229Z,1011.16
2017-03-07T05:32:21.698Z,1011.17
2017-03-07T05:32:47.249Z,1011.16
2017-03-07T05:33:13.276Z,1011.17
2017-03-07T05:33:38.381Z,1011.19
2017-03-07T05:34:03.929Z,1011.17
2017-03-07T05:34:31.002Z,1011.19
2017-03-07T05:34:56.599Z,1011.2
2017-03-07T05:35:22.291Z,1011.26
2017-03-07T05:35:47.847Z,1011.25
2017-03-07T05:36:13.384Z,1011.26
2017-03-07T05:36:38.918Z,1011.23
2017-03-07T05:37:04.489Z,1011.27
2017-03-07T05:37:30.240Z,1011.22
2017-03-07T05:37:55.789Z,1011.23
2017-03-07T05:38:21.348Z,1011.27
2017-03-07T05:38:46.914Z,1011.28
2017-03-07T05:39:12.467Z,1011.27
2017-03-07T05:39:38.011Z,1011.27
2017-03-07T05:40:03.567Z,1011.26
2017-03-07T05:40:29.815Z,1011.27
2017-03-07T05:40:55.586Z,1011.25
2017-03-07T05:41:21.130Z,1011.28
2017-03-07T05:41:46.679Z,1011.27
2017-03-07T05:42:12.371Z,1011.3
2017-03-07T05:42:37.970Z,1011.27
2017-03-07T05:43:03.553Z,1011.31
2017-03-07T05:43:29.131Z,1011.31
2017-03-07T05:43:54.794Z,1011.31
2017-03-07T05:44:20.366Z,1011.27
2017-03-07T05:44:46.041Z,1011.26
2017-03-07T05:45:11.625Z,1011.3
2017-03-07T05:45:37.182Z,1011.3
2017-03-07T05:46:02.728Z,1011.29
2017-03-07T05:46:28.282Z,1011.3
2017-03-07T05:46:53.886Z,1011.29
2017-03-07T05:47:19.446Z,1011.35
2017-03-07T05:47:45.066Z,1011.32
2017-03-07T05:48:10.632Z,1011.3
2017-03-07T05:48:36.784Z,1011.35
2017-03-07T05:49:01.837Z,1011.35
2017-03-07T05:49:27.393Z,1011.37
2017-03-07T05:49:53.022Z,1011.34
2017-03-07T05:50:18.635Z,1011.34
2017-03-07T05:50:44.201Z,1011.34
2017-03-07T05:51:09.840Z,1011.37
2017-03-07T05:51:35.375Z,1011.34
2017-03-07T05:52:00.941Z,1011.36
2017-03-07T05:52:26.505Z,1011.38
2017-03-07T05:52:52.206Z,1011.35
2017-03-07T05:53:17.781Z,1011.36
2017-03-07T05:53:43.348Z,1011.34
2017-03-07T05:54:51.921Z,1011.3
2017-03-07T05:55:22.199Z,1011.35
2017-03-07T05:57:33.001Z,1011.33
2017-03-07T05:57:58.523Z,1011.37
2017-03-07T05:58:24.068Z,1011.34
2017-03-07T05:58:49.623Z,1011.37
2017-03-07T05:59:15.173Z,1011.39
2017-03-07T05:59:40.830Z,1011.38
2017-03-07T06:00:06.368Z,1011.41
2017-03-07T06:00:32.061Z,1011.39
2017-03-07T06:01:30.487Z,1011.49
2017-03-07T06:01:56.606Z,1011.45
2017-03-07T06:02:21.742Z,1011.47
2017-03-07T06:03:25.049Z,1011.42
2017-03-07T06:03:51.121Z,1011.47
2017-03-07T06:04:16.823Z,1011.46
2017-03-07T06:04:42.434Z,1011.55
2017-03-07T06:05:08.063Z,1011.53
2017-03-07T06:05:33.620Z,1011.49
2017-03-07T06:05:59.192Z,1011.51
2017-03-07T06:06:25.411Z,1011.53
2017-03-07T06:06:50.287Z,1011.55
2017-03-07T06:07:15.848Z,1011.58
2017-03-07T06:07:41.496Z,1011.58
2017-03-07T06:08:07.913Z,1011.6
2017-03-07T06:08:32.567Z,1011.59
2017-03-07T06:08:58.136Z,1011.58
2017-03-07T06:09:23.810Z,1011.64
2017-03-07T06:09:49.438Z,1011.65
2017-03-07T06:10:15.001Z,1011.63
2017-03-07T06:10:41.413Z,1011.66
2017-03-07T06:11:06.161Z,1011.64
2017-03-07T06:11:32.503Z,1011.64
2017-03-07T06:11:58.110Z,1011.63
2017-03-07T06:12:23.656Z,1011.65
2017-03-07T06:12:49.215Z,1011.66
2017-03-07T06:13:14.789Z,1011.67
2017-03-07T06:13:40.351Z,1011.69
2017-03-07T06:14:05.893Z,1011.69
2017-03-07T06:14:31.575Z,1011.69
2017-03-07T06:14:57.158Z,1011.73
2017-03-07T06:15:22.723Z,1011.73
2017-03-07T06:15:48.375Z,1011.7
2017-03-07T06:16:13.918Z,1011.73
2017-03-07T06:16:39.469Z,1011.75
2017-03-07T06:17:05.037Z,1011.76
2017-03-07T06:17:30.597Z,1011.71
2017-03-07T06:17:56.168Z,1011.74
2017-03-07T06:18:21.729Z,1011.75
2017-03-07T06:18:47.292Z,1011.78
2017-03-07T06:19:12.837Z,1011.79
2017-03-07T06:19:38.558Z,1011.79
2017-03-07T06:20:04.108Z,1011.79
2017-03-07T06:20:29.658Z,1011.81
2017-03-07T06:20:55.352Z,1011.82
2017-03-07T06:21:20.900Z,1011.83
2017-03-07T06:21:46.456Z,1011.84
2017-03-07T06:22:12.039Z,1011.79
2017-03-07T06:22:37.613Z,1011.84
2017-03-07T06:23:03.177Z,1011.86
2017-03-07T06:23:28.741Z,1011.87
2017-03-07T06:23:54.307Z,1011.84
2017-03-07T06:24:19.867Z,1011.81
2017-03-07T06:24:45.419Z,1011.87
2017-03-07T06:25:11.011Z,1011.84
2017-03-07T06:25:36.616Z,1011.83
2017-03-07T06:26:02.166Z,1011.81
2017-03-07T06:26:27.712Z,1011.88
2017-03-07T06:26:53.270Z,1011.82
2017-03-07T06:27:18.871Z,1011.86
2017-03-07T06:27:44.444Z,1011.85
2017-03-07T06:28:10.005Z,1011.84
2017-03-07T06:28:35.567Z,1011.85
2017-03-07T06:29:01.111Z,1011.89
2017-03-07T06:29:26.667Z,1011.91
2017-03-07T06:29:52.230Z,1011.91
2017-03-07T06:30:17.799Z,1011.89
2017-03-07T06:30:43.376Z,1011.91
2017-03-07T06:31:08.954Z,1011.89
2017-03-07T06:31:34.522Z,1011.89
2017-03-07T06:32:00.102Z,1011.95
2017-03-07T06:32:25.724Z,1011.91
2017-03-07T06:32:51.300Z,1011.92
2017-03-07T06:33:16.853Z,1011.95
2017-03-07T06:33:42.418Z,1011.95
2017-03-07T06:34:08.026Z,1011.96
2017-03-07T06:34:33.593Z,1011.98
2017-03-07T06:34:59.161Z,1011.95
2017-03-07T06:35:24.770Z,1012
2017-03-07T06:35:50.336Z,1011.96
2017-03-07T06:36:15.903Z,1012
2017-03-07T06:36:41.461Z,1011.99
2017-03-07T06:37:07.040Z,1011.97
2017-03-07T06:37:32.606Z,1011.98
2017-03-07T06:37:58.180Z,1012.02
2017-03-07T06:38:23.726Z,1011.99
2017-03-07T06:38:49.270Z,1012.01
2017-03-07T06:39:14.849Z,1012.03
2017-03-07T06:40:22.567Z,1012.03
2017-03-07T06:40:48.115Z,1012.04
2017-03-07T06:41:13.676Z,1012.03
2017-03-07T06:41:39.240Z,1012.04
2017-03-07T06:42:04.821Z,1012.07
2017-03-07T06:42:30.376Z,1012.07
2017-03-07T06:42:55.933Z,1012.1
2017-03-07T06:43:22.059Z,1012.07
2017-03-07T06:43:47.631Z,1012.05
2017-03-07T06:44:13.849Z,1012.06
2017-03-07T06:44:40.298Z,1012.05
2017-03-07T06:45:05.933Z,1012.09
2017-03-07T06:45:31.511Z,1012.11
2017-03-07T06:45:57.081Z,1012.09
2017-03-07T06:46:23.013Z,1012.05
2017-03-07T06:46:48.832Z,1012.07
2017-03-07T06:47:14.755Z,1012.07
2017-03-07T06:47:40.358Z,1012.03
2017-03-07T06:48:05.893Z,1012.05
2017-03-07T06:48:32.133Z,1012.02
2017-03-07T06:48:57.688Z,1012.02
2017-03-07T06:49:23.930Z,1012.03
2017-03-07T06:50:22.391Z,1012.03
2017-03-07T06:50:47.944Z,1012.07
2017-03-07T06:51:13.514Z,1012.05
2017-03-07T06:51:39.092Z,1012.03
2017-03-07T06:52:04.652Z,1012.08
2017-03-07T06:52:30.229Z,1012.04
2017-03-07T06:52:55.786Z,1012.06
2017-03-07T06:53:21.357Z,1012.05
2017-03-07T06:53:46.953Z,1012.06
2017-03-07T06:54:12.544Z,1012.06
2017-03-07T06:54:38.098Z,1012.05
2017-03-07T06:55:03.649Z,1012.06
2017-03-07T06:55:29.320Z,1012.05
2017-03-07T06:55:54.879Z,1012.05
2017-03-07T06:56:20.408Z,1012.1
2017-03-07T06:56:45.954Z,1012.06
2017-03-07T06:57:11.490Z,1012.05
2017-03-07T06:57:37.048Z,1012.08
2017-03-07T06:58:02.589Z,1012.09
2017-03-07T06:58:28.138Z,1012.04
2017-03-07T06:58:53.711Z,1012.06
2017-03-07T06:59:19.278Z,1012.09
2017-03-07T06:59:44.847Z,1012.09
2017-03-07T07:00:59.498Z,1012.06
2017-03-07T07:01:25.046Z,1012.09
2017-03-07T07:01:50.727Z,1012.12
2017-03-07T07:02:16.291Z,1012.08
2017-03-07T07:02:41.858Z,1012.08
2017-03-07T07:03:08.143Z,1012.1
2017-03-07T07:03:33.707Z,1012.12
2017-03-07T07:03:59.261Z,1012.1
2017-03-07T07:04:24.809Z,1012.09
2017-03-07T07:04:50.358Z,1012.11
2017-03-07T07:05:15.969Z,1012.11
2017-03-07T07:05:41.508Z,1012.1
2017-03-07T07:06:07.191Z,1012.13
2017-03-07T07:06:33.717Z,1012.13
2017-03-07T07:06:58.344Z,1012.13
2017-03-07T07:07:23.898Z,1012.14
2017-03-07T07:07:49.451Z,1012.15
2017-03-07T07:08:14.997Z,1012.18
2017-03-07T07:08:40.538Z,1012.17
2017-03-07T07:09:06.134Z,1012.18
2017-03-07T07:09:31.679Z,1012.23
2017-03-07T07:09:57.232Z,1012.22
2017-03-07T07:10:22.828Z,1012.21
2017-03-07T07:10:48.385Z,1012.21
2017-03-07T07:11:13.959Z,1012.28
2017-03-07T07:11:39.538Z,1012.3
2017-03-07T07:12:05.133Z,1012.27
2017-03-07T07:12:30.676Z,1012.23
2017-03-07T07:12:56.328Z,1012.3
2017-03-07T07:13:21.895Z,1012.28
2017-03-07T07:13:47.460Z,1012.3
2017-03-07T07:14:13.014Z,1012.34
2017-03-07T07:14:39.224Z,1012.31
2017-03-07T07:15:04.144Z,1012.37
2017-03-07T07:15:29.714Z,1012.37
2017-03-07T07:15:55.292Z,1012.37
2017-03-07T07:16:20.861Z,1012.37
2017-03-07T07:16:46.602Z,1012.37
2017-03-07T07:17:12.158Z,1012.4
2017-03-07T07:17:37.753Z,1012.39
2017-03-07T07:18:03.309Z,1012.4
2017-03-07T07:18:28.865Z,1012.42
2017-03-07T07:18:54.494Z,1012.43
2017-03-07T07:19:20.053Z,1012.4
2017-03-07T07:19:45.610Z,1012.42
2017-03-07T07:20:11.258Z,1012.47
2017-03-07T07:20:36.862Z,1012.45
2017-03-07T07:21:02.429Z,1012.44
2017-03-07T07:21:28.020Z,1012.45
2017-03-07T07:21:54.454Z,1012.45
2017-03-07T07:22:20.010Z,1012.48
2017-03-07T07:22:46.239Z,1012.49
2017-03-07T07:23:11.801Z,1012.49
2017-03-07T07:23:37.401Z,1012.51
2017-03-07T07:24:02.975Z,1012.52
2017-03-07T07:24:28.521Z,1012.5
2017-03-07T07:24:54.083Z,1012.52
2017-03-07T07:25:19.626Z,1012.53
2017-03-07T07:25:45.225Z,1012.52
2017-03-07T07:26:10.791Z,1012.54
2017-03-07T07:26:36.379Z,1012.55
2017-03-07T07:27:02.026Z,1012.52
2017-03-07T07:27:27.641Z,1012.55
2017-03-07T07:27:53.199Z,1012.55
2017-03-07T07:28:18.754Z,1012.56
2017-03-07T07:28:44.306Z,1012.55
2017-03-07T07:29:09.862Z,1012.59
2017-03-07T07:29:35.539Z,1012.58
2017-03-07T07:30:01.106Z,1012.61
2017-03-07T07:30:26.668Z,1012.61
2017-03-07T07:30:52.231Z,1012.61
2017-03-07T07:31:17.787Z,1012.64
2017-03-07T07:31:43.348Z,1012.63
2017-03-07T07:32:57.070Z,1012.66
2017-03-07T07:33:22.626Z,1012.64
2017-03-07T07:33:48.192Z,1012.65
2017-03-07T07:34:13.735Z,1012.64
2017-03-07T07:34:39.320Z,1012.64
2017-03-07T07:35:04.892Z,1012.63
2017-03-07T07:35:30.449Z,1012.63
2017-03-07T07:35:55.998Z,1012.65
2017-03-07T07:37:04.289Z,1012.67
2017-03-07T07:37:29.910Z,1012.64
2017-03-07T07:37:56.260Z,1012.65
2017-03-07T07:38:21.875Z,1012.64
2017-03-07T07:38:47.459Z,1012.63
2017-03-07T07:39:13.012Z,1012.58
2017-03-07T07:39:38.638Z,1012.66
2017-03-07T07:40:04.330Z,1012.64
2017-03-07T07:40:29.845Z,1012.61
2017-03-07T07:40:55.390Z,1012.61
2017-03-07T07:41:20.950Z,1012.65
2017-03-07T07:41:46.512Z,1012.66
2017-03-07T07:42:12.075Z,1012.72
2017-03-07T07:42:37.734Z,1012.68
2017-03-07T07:43:03.301Z,1012.68
2017-03-07T07:43:28.867Z,1012.67
2017-03-07T07:43:54.439Z,1012.68
2017-03-07T07:44:20.006Z,1012.72
2017-03-07T07:44:45.562Z,1012.61
2017-03-07T07:45:11.088Z,1012.71
2017-03-07T07:45:36.737Z,1012.68
2017-03-07T07:46:02.308Z,1012.69
2017-03-07T07:46:27.871Z,1012.67
2017-03-07T07:46:54.247Z,1012.71
2017-03-07T07:47:19.925Z,1012.7
2017-03-07T07:47:45.478Z,1012.68
2017-03-07T07:48:11.027Z,1012.67
2017-03-07T07:48:37.271Z,1012.69
2017-03-07T07:49:02.181Z,1012.68
2017-03-07T07:49:27.772Z,1012.71
2017-03-07T07:49:53.334Z,1012.69
2017-03-07T07:50:18.902Z,1012.7
2017-03-07T07:50:44.444Z,1012.69
2017-03-07T07:51:10.009Z,1012.72
2017-03-07T07:51:35.574Z,1012.72
2017-03-07T07:52:01.190Z,1012.69
2017-03-07T07:52:26.950Z,1012.69
2017-03-07T07:52:52.498Z,1012.69
2017-03-07T07:53:18.193Z,1012.72
2017-03-07T07:53:43.736Z,1012.74
2017-03-07T07:54:09.278Z,1012.75
2017-03-07T07:54:34.829Z,1012.69
2017-03-07T07:55:00.381Z,1012.68
2017-03-07T07:55:25.976Z,1012.69
2017-03-07T07:55:51.609Z,1012.69
2017-03-07T07:56:17.172Z,1012.71
2017-03-07T07:56:42.750Z,1012.66
2017-03-07T07:57:08.317Z,1012.71
2017-03-07T07:57:33.891Z,1012.71
2017-03-07T07:57:59.465Z,1012.7
2017-03-07T07:58:25.042Z,1012.7
2017-03-07T07:58:50.597Z,1012.71
2017-03-07T07:59:16.236Z,1012.68
2017-03-07T07:59:41.824Z,1012.69
2017-03-07T08:00:07.366Z,1012.74
2017-03-07T08:00:32.921Z,1012.74
2017-03-07T08:00:58.474Z,1012.74
2017-03-07T08:01:24.059Z,1012.73
2017-03-07T08:01:49.716Z,1012.76
2017-03-07T08:02:15.353Z,1012.79
2017-03-07T08:02:40.938Z,1012.74
2017-03-07T08:03:06.689Z,1012.77
2017-03-07T08:03:32.261Z,1012.76
2017-03-07T08:03:57.827Z,1012.79
2017-03-07T08:04:23.390Z,1012.81
2017-03-07T08:04:48.951Z,1012.79
2017-03-07T08:05:14.507Z,1012.8
2017-03-07T08:05:40.074Z,1012.81
2017-03-07T08:06:05.637Z,1012.77
2017-03-07T08:06:31.201Z,1012.79
2017-03-07T08:06:56.767Z,1012.81
2017-03-07T08:07:22.327Z,1012.78
2017-03-07T08:07:47.899Z,1012.75
2017-03-07T08:08:13.456Z,1012.79
2017-03-07T08:08:38.999Z,1012.76
2017-03-07T08:09:04.561Z,1012.79
2017-03-07T08:09:30.148Z,1012.78
2017-03-07T08:09:55.713Z,1012.82
2017-03-07T08:10:21.270Z,1012.79
2017-03-07T08:10:46.841Z,1012.8
2017-03-07T08:11:12.416Z,1012.77
2017-03-07T08:11:38.059Z,1012.76
2017-03-07T08:12:03.626Z,1012.74
2017-03-07T08:12:29.210Z,1012.79
2017-03-07T08:12:54.776Z,1012.78
2017-03-07T08:13:20.322Z,1012.73
2017-03-07T08:13:45.869Z,1012.79
2017-03-07T08:14:11.412Z,1012.83
2017-03-07T08:14:37.040Z,1012.79
2017-03-07T08:15:02.681Z,1012.8
2017-03-07T08:15:28.243Z,1012.84
2017-03-07T08:15:53.841Z,1012.79
2017-03-07T08:16:19.407Z,1012.88
2017-03-07T08:16:44.972Z,1012.85
2017-03-07T08:17:10.552Z,1012.86
2017-03-07T08:17:36.119Z,1012.92
2017-03-07T08:18:01.697Z,1012.9
2017-03-07T08:18:28.108Z,1012.9
2017-03-07T08:18:53.671Z,1012.98
2017-03-07T08:19:19.242Z,1012.94
2017-03-07T08:19:44.818Z,1012.95
2017-03-07T08:20:10.407Z,1012.95
2017-03-07T08:20:35.969Z,1012.97
2017-03-07T08:21:02.283Z,1012.96
2017-03-07T08:21:27.557Z,1012.95
2017-03-07T08:21:53.122Z,1012.94
2017-03-07T08:22:18.680Z,1013
2017-03-07T08:22:44.256Z,1013.01
2017-03-07T08:23:09.823Z,1013.01
2017-03-07T08:23:35.427Z,1012.95
2017-03-07T08:24:00.986Z,1012.97
2017-03-07T08:24:26.551Z,1013.01
2017-03-07T08:24:52.785Z,1012.97
2017-03-07T08:25:17.871Z,1012.96
2017-03-07T08:25:43.430Z,1012.97
2017-03-07T08:26:09.000Z,1012.96
2017-03-07T08:26:34.575Z,1012.96
2017-03-07T08:27:00.155Z,1012.93
2017-03-07T08:27:25.708Z,1012.93
2017-03-07T08:27:52.088Z,1012.95
2017-03-07T08:28:17.652Z,1012.92
2017-03-07T08:28:43.229Z,1012.91
2017-03-07T08:29:08.801Z,1012.89
2017-03-07T08:29:34.406Z,1012.9
2017-03-07T08:29:59.977Z,1012.86
2017-03-07T08:30:25.549Z,1012.92
2017-03-07T08:30:51.159Z,1012.91
2017-03-07T08:31:16.725Z,1012.86
2017-03-07T08:31:42.301Z,1012.95
2017-03-07T08:32:07.971Z,1012.89
2017-03-07T08:32:33.536Z,1012.89
2017-03-07T08:32:59.087Z,1012.92
2017-03-07T08:33:24.640Z,1012.94
2017-03-07T08:33:50.199Z,1012.92
2017-03-07T08:34:15.766Z,1012.91
2017-03-07T08:34:41.387Z,1012.91
2017-03-07T08:35:06.970Z,1012.97
2017-03-07T08:35:32.537Z,1012.96
2017-03-07T08:35:58.094Z,1012.99
2017-03-07T08:36:23.645Z,1012.96
2017-03-07T08:36:49.211Z,1012.96
2017-03-07T08:37:14.776Z,1012.98
2017-03-07T08:37:40.330Z,1012.96
2017-03-07T08:38:05.897Z,1013
2017-03-07T08:38:31.546Z,1012.99
2017-03-07T08:38:57.136Z,1012.98
2017-03-07T08:39:22.719Z,1013.01
2017-03-07T08:39:48.283Z,1013.03
2017-03-07T08:40:14.383Z,1013
2017-03-07T08:40:39.950Z,1013
2017-03-07T08:41:05.523Z,1013
2017-03-07T08:41:31.094Z,1013.03
2017-03-07T08:41:56.664Z,1013.03
2017-03-07T08:42:22.259Z,1013.05
2017-03-07T08:42:47.805Z,1013.04
2017-03-07T08:43:13.394Z,1013.06
2017-03-07T08:43:38.951Z,1013.06
2017-03-07T08:44:04.517Z,1013.11
2017-03-07T08:44:30.085Z,1013.11
2017-03-07T08:44:55.642Z,1013.08
2017-03-07T08:45:21.221Z,1013.08
2017-03-07T08:45:47.666Z,1013.11
2017-03-07T08:46:13.216Z,1013.08
2017-03-07T08:46:38.759Z,1013.09
2017-03-07T08:47:04.339Z,1013.09
2017-03-07T08:47:29.908Z,1013.09
2017-03-07T08:47:55.465Z,1013.13
2017-03-07T08:48:21.041Z,1013.12
2017-03-07T08:48:46.591Z,1013.14
2017-03-07T08:49:12.175Z,1013.12
2017-03-07T08:49:37.783Z,1013.17
2017-03-07T08:50:03.340Z,1013.2
2017-03-07T08:50:29.842Z,1013.19
2017-03-07T08:50:55.409Z,1013.17
2017-03-07T08:51:20.979Z,1013.25
2017-03-07T08:51:46.553Z,1013.22
2017-03-07T08:52:12.131Z,1013.21
2017-03-07T08:52:37.730Z,1013.21
2017-03-07T08:53:03.290Z,1013.27
2017-03-07T08:53:28.862Z,1013.26
2017-03-07T08:53:54.426Z,1013.26
2017-03-07T08:54:19.978Z,1013.23
2017-03-07T08:54:45.545Z,1013.26
2017-03-07T08:55:11.090Z,1013.25
2017-03-07T08:55:36.644Z,1013.26
2017-03-07T08:56:02.194Z,1013.26
2017-03-07T08:56:27.767Z,1013.27
2017-03-07T08:56:53.324Z,1013.29
2017-03-07T08:57:18.919Z,1013.26
2017-03-07T08:57:44.475Z,1013.26
2017-03-07T08:58:10.825Z,1013.28
2017-03-07T08:58:36.437Z,1013.29
2017-03-07T08:59:02.074Z,1013.25
2017-03-07T08:59:27.635Z,1013.29
2017-03-07T08:59:53.188Z,1013.26
2017-03-07T09:00:18.762Z,1013.28
2017-03-07T09:00:44.348Z,1013.28
2017-03-07T09:01:09.927Z,1013.32
2017-03-07T09:01:35.498Z,1013.31
2017-03-07T09:02:01.069Z,1013.35
2017-03-07T09:02:26.682Z,1013.35
2017-03-07T09:02:52.234Z,1013.32
2017-03-07T09:03:17.788Z,1013.35
2017-03-07T09:03:43.359Z,1013.39
2017-03-07T09:04:08.939Z,1013.35
2017-03-07T09:04:34.503Z,1013.34
2017-03-07T09:05:00.063Z,1013.38
2017-03-07T09:05:25.629Z,1013.35
2017-03-07T09:05:51.268Z,1013.35
2017-03-07T09:06:16.822Z,1013.43
2017-03-07T09:06:42.386Z,1013.43
2017-03-07T09:07:07.958Z,1013.46
2017-03-07T09:07:33.514Z,1013.44
2017-03-07T09:07:59.087Z,1013.43
2017-03-07T09:08:24.654Z,1013.42
2017-03-07T09:08:50.198Z,1013.46
2017-03-07T09:09:15.759Z,1013.41
2017-03-07T09:09:41.419Z,1013.42
2017-03-07T09:10:06.990Z,1013.43
2017-03-07T09:10:32.562Z,1013.42
2017-03-07T09:10:58.126Z,1013.49
2017-03-07T09:11:23.684Z,1013.44
2017-03-07T09:11:49.269Z,1013.45
2017-03-07T09:12:15.167Z,1013.47
2017-03-07T09:12:40.741Z,1013.49
2017-03-07T09:13:06.327Z,1013.46
2017-03-07T09:13:32.061Z,1013.49
2017-03-07T09:13:57.628Z,1013.52
2017-03-07T09:14:23.189Z,1013.54
2017-03-07T09:14:48.750Z,1013.5
2017-03-07T09:15:14.312Z,1013.52
2017-03-07T09:16:33.224Z,1013.5
2017-03-07T09:16:58.846Z,1013.53
2017-03-07T09:17:24.390Z,1013.53
2017-03-07T09:17:49.969Z,1013.59
2017-03-07T09:18:15.521Z,1013.58
2017-03-07T09:18:41.097Z,1013.53
2017-03-07T09:19:06.820Z,1013.58
2017-03-07T09:19:32.393Z,1013.6
2017-03-07T09:20:45.783Z,1013.54
2017-03-07T09:21:11.332Z,1013.56
2017-03-07T09:21:36.897Z,1013.6
2017-03-07T09:22:02.443Z,1013.64
2017-03-07T09:22:27.987Z,1013.58
2017-03-07T09:22:53.545Z,1013.6
2017-03-07T09:23:19.125Z,1013.62
2017-03-07T09:23:44.726Z,1013.63
2017-03-07T09:24:43.250Z,1013.63
2017-03-07T09:25:08.863Z,1013.62
2017-03-07T09:25:34.473Z,1013.61
2017-03-07T09:26:00.089Z,1013.61
2017-03-07T09:26:25.652Z,1013.63
2017-03-07T09:26:51.246Z,1013.66
2017-03-07T09:27:16.917Z,1013.69
2017-03-07T09:27:42.500Z,1013.67
2017-03-07T09:28:08.813Z,1013.66